.
WxDataArchive / Data Records for 2007-03-12
2007-03-11 March 2007 2007-03-13

Data Records for Monday, 12 March 2007

Time	Temp	Chill	HIndex	Humid	Dewpt	 Wind 	HiWind	WindDir	Rain 	Barom 
-----	----	-----	------	-----	-----	------	------	-------	-----	----- 
00:00	28.2	28.2	28.2	79	22.5	0	0	---	0.00	30.319 
00:05	28.2	28.2	28.2	79	22.5	0	0	---	0.00	30.316 
00:10	28.2	28.2	28.2	80	22.8	0	0	---	0.00	30.315 
00:15	28.2	28.2	28.2	80	22.8	0	0	---	0.00	30.315 
00:20	28.1	28.1	28.1	79	22.4	0	0	---	0.00	30.313 
00:25	27.9	27.9	27.9	80	22.5	0	0	---	0.00	30.312 
00:30	27.8	27.8	27.8	80	22.4	0	0	---	0.00	30.307 
00:35	27.6	27.6	27.6	80	22.3	0	0	---	0.00	30.303 
00:40	27.6	27.6	27.6	81	22.5	0	0	---	0.00	30.302 
00:45	27.5	27.5	27.5	81	22.4	0	0	---	0.00	30.304 
00:50	27.5	27.5	27.5	81	22.4	0	0	---	0.00	30.300 
00:55	27.6	27.6	27.6	81	22.5	0	0	---	0.00	30.297 
01:00	27.6	27.6	27.6	81	22.5	0	0	---	0.00	30.299 
01:05	27.6	27.6	27.6	81	22.5	0	0	---	0.00	30.297 
01:10	27.6	27.6	27.6	81	22.5	0	0	---	0.00	30.296 
01:15	27.6	27.6	27.6	82	22.8	0	0	---	0.00	30.290 
01:20	27.5	27.5	27.5	81	22.4	0	0	---	0.00	30.289 
01:25	27.5	27.5	27.5	81	22.4	0	0	---	0.00	30.285 
01:30	27.3	27.3	27.3	82	22.5	0	0	---	0.00	30.284 
01:35	27.3	27.3	27.3	82	22.5	0	0	---	0.00	30.286 
01:40	27.2	27.2	27.2	82	22.4	0	0	---	0.00	30.285 
01:45	27.0	27.0	27.0	82	22.3	0	0	---	0.00	30.284 
01:50	27.0	27.0	27.0	82	22.3	0	0	---	0.00	30.285 
01:55	27.0	27.0	27.0	82	22.3	0	0	---	0.00	30.285 
02:00	27.0	27.0	27.0	82	22.3	0	0	---	0.00	30.284 
02:05	26.9	26.9	26.9	82	22.2	0	0	---	0.00	30.280 
02:10	26.9	26.9	26.9	83	22.4	0	0	---	0.00	30.277 
02:15	26.7	26.7	26.7	82	22.0	0	0	---	0.00	30.277 
02:20	26.6	26.6	26.6	82	21.9	0	0	---	0.00	30.272 
02:25	26.6	26.6	26.6	83	22.1	0	0	---	0.00	30.270 
02:30	26.4	26.4	26.4	83	22.0	0	0	---	0.00	30.268 
02:35	26.4	26.4	26.4	83	22.0	0	0	---	0.00	30.265 
02:40	26.3	26.3	26.3	83	21.9	0	0	---	0.00	30.260 
02:45	26.3	26.3	26.3	84	22.1	0	0	---	0.00	30.257 
02:50	26.3	26.3	26.3	84	22.1	0	0	---	0.00	30.256 
02:55	26.3	26.3	26.3	84	22.1	0	0	---	0.00	30.254 
03:00	26.3	26.3	26.3	84	22.1	0	0	---	0.00	30.253 
03:05	26.4	26.4	26.4	84	22.2	0	0	---	0.00	30.252 
03:10	26.4	26.4	26.4	84	22.2	0	0	---	0.00	30.251 
03:15	26.6	26.6	26.6	84	22.4	0	0	---	0.00	30.250 
03:20	26.6	26.6	26.6	84	22.4	0	0	---	0.00	30.248 
03:25	26.6	26.6	26.6	84	22.4	0	0	---	0.00	30.248 
03:30	26.6	26.6	26.6	84	22.4	0	0	---	0.00	30.242 
03:35	26.6	26.6	26.6	83	22.1	0	0	---	0.00	30.244 
03:40	26.6	26.6	26.6	83	22.1	0	0	---	0.00	30.243 
03:45	26.6	26.6	26.6	83	22.1	0	0	---	0.00	30.239 
03:50	26.6	26.6	26.6	83	22.1	0	0	---	0.00	30.235 
03:55	26.9	26.9	26.9	83	22.4	0	0	---	0.00	30.235 
04:00	27.3	27.3	27.3	82	22.5	0	0	---	0.00	30.233 
04:05	27.6	27.6	27.6	81	22.5	0	0	---	0.00	30.234 
04:10	28.1	28.1	28.1	80	22.7	0	0	---	0.00	30.235 
04:15	28.2	28.2	28.2	79	22.5	0	0	---	0.00	30.233 
04:20	28.5	28.5	28.5	79	22.8	0	0	---	0.00	30.235 
04:25	29.0	29.0	29.0	76	22.4	0	0	---	0.00	30.231 
04:30	29.4	29.4	29.4	73	21.8	0	0	---	0.00	30.230 
04:35	29.8	29.8	29.8	72	21.9	0	0	---	0.00	30.233 
04:40	30.1	30.1	30.1	70	21.5	0	0	---	0.00	30.234 
04:45	30.4	30.4	30.4	70	21.8	0	0	---	0.00	30.233 
04:50	30.9	30.9	30.9	69	21.9	0	0	---	0.00	30.231 
04:55	31.5	31.5	31.5	68	22.2	0	0	---	0.00	30.229 
05:00	31.9	31.9	31.9	67	22.2	0	0	---	0.00	30.231 
05:05	32.4	32.4	32.4	66	22.3	0	0	---	0.00	30.233 
05:10	32.7	32.7	32.7	65	22.3	0	0	---	0.00	30.231 
05:15	32.9	32.9	32.9	65	22.4	0	0	---	0.00	30.232 
05:20	32.9	32.9	32.9	65	22.4	0	0	---	0.00	30.231 
05:25	33.1	33.1	33.1	65	22.6	0	0	---	0.00	30.231 
05:30	33.4	33.4	33.4	64	22.6	0	0	---	0.00	30.231 
05:35	33.7	33.7	33.7	63	22.5	0	0	---	0.00	30.232 
05:40	34.1	34.1	34.1	62	22.5	0	0	---	0.00	30.232 
05:45	34.7	34.7	34.7	61	22.6	0	0	---	0.00	30.232 
05:50	35.0	35.0	35.0	60	22.5	0	0	---	0.00	30.231 
05:55	35.3	35.3	35.3	61	23.2	0	0	---	0.00	30.231 
06:00	35.5	35.5	35.5	61	23.4	0	0	---	0.00	30.231 
06:05	35.6	35.6	35.6	61	23.5	0	0	---	0.00	30.236 
06:10	35.8	35.8	35.8	60	23.3	0	1	135	0.00	30.235 
06:15	36.2	36.2	36.2	60	23.7	0	1	135	0.00	30.236 
06:20	36.5	36.5	36.5	60	24.0	0	1	135	0.00	30.233 
06:25	36.6	36.6	36.6	61	24.4	0	1	135	0.00	30.234 
06:30	36.8	36.8	36.8	60	24.2	0	1	135	0.00	30.234 
06:35	36.9	36.9	36.9	61	24.7	0	2	202	0.00	30.233 
06:40	37.2	37.2	37.2	59	24.2	0	2	202	0.00	30.234 
06:45	37.3	37.3	37.3	59	24.3	0	1	202	0.00	30.235 
06:50	37.5	37.5	37.5	57	23.7	1	3	248	0.00	30.238 
06:55	37.8	37.8	37.8	57	24.0	1	4	248	0.00	30.241 
07:00	37.9	37.9	37.9	56	23.6	1	4	248	0.00	30.242 
07:05	38.0	38.0	38.0	56	23.7	0	3	248	0.00	30.246 
07:10	38.0	38.0	38.0	57	24.1	1	3	0	0.00	30.247 
07:15	38.0	38.0	38.0	56	23.7	1	2	248	0.00	30.246 
07:20	38.0	38.0	38.0	57	24.1	0	3	248	0.00	30.243 
07:25	38.0	38.0	38.0	57	24.1	0	3	225	0.00	30.240 
07:30	37.9	37.9	37.9	58	24.5	1	3	225	0.00	30.240 
07:35	37.9	37.9	37.9	58	24.5	0	2	248	0.00	30.239 
07:40	37.8	37.8	37.8	58	24.4	1	2	112	0.00	30.238 
07:45	37.9	37.9	37.9	58	24.5	1	3	270	0.00	30.237 
07:50	37.9	37.9	37.9	58	24.5	0	3	270	0.00	30.238 
07:55	37.9	37.9	37.9	58	24.5	0	2	270	0.00	30.235 
08:00	38.0	38.0	38.0	58	24.6	0	2	270	0.00	30.235 
08:05	38.0	38.0	38.0	58	24.6	0	4	270	0.00	30.242 
08:10	38.2	38.2	38.2	57	24.3	1	2	248	0.00	30.242 
08:15	38.3	38.3	38.3	57	24.4	1	4	248	0.00	30.242 
08:20	38.5	38.5	38.5	57	24.6	1	3	270	0.00	30.242 
08:25	38.8	38.8	38.8	56	24.5	1	5	248	0.00	30.242 
08:30	38.8	38.8	38.8	56	24.5	0	1	248	0.00	30.241 
08:35	38.9	38.9	38.9	55	24.1	0	3	225	0.00	30.238 
08:40	39.1	39.1	39.1	56	24.7	0	2	248	0.00	30.238 
08:45	39.2	39.2	39.2	56	24.8	0	3	248	0.00	30.238 
08:50	39.2	39.2	39.2	55	24.4	1	3	248	0.00	30.239 
08:55	39.5	39.5	39.5	54	24.2	1	3	270	0.00	30.240 
09:00	39.6	39.6	39.6	54	24.3	1	4	270	0.00	30.240 
09:05	39.6	39.6	39.6	53	23.9	1	3	248	0.00	30.243 
09:10	39.8	39.8	39.8	53	24.1	1	6	248	0.00	30.243 
09:15	40.1	40.1	40.1	53	24.4	1	4	248	0.00	30.243 
09:20	40.3	40.3	40.3	52	24.1	2	4	248	0.00	30.242 
09:25	40.5	40.5	40.5	52	24.3	1	5	248	0.00	30.242 
09:30	40.6	40.6	40.6	51	23.9	1	4	248	0.00	30.243 
09:35	40.6	40.6	40.6	51	23.9	1	3	248	0.00	30.241 
09:40	40.8	40.8	40.8	51	24.1	1	6	248	0.00	30.239 
09:45	40.9	40.9	40.9	51	24.2	2	6	248	0.00	30.242 
09:50	41.1	41.1	41.1	51	24.4	2	5	248	0.00	30.240 
09:55	41.2	41.2	41.2	50	24.0	2	6	225	0.00	30.240 
10:00	41.3	41.3	41.3	51	24.6	2	4	248	0.00	30.242 
10:05	41.5	41.5	41.5	51	24.7	2	6	248	0.00	30.241 
10:10	41.5	41.5	41.5	51	24.7	2	5	248	0.00	30.236 
10:15	41.5	41.5	41.5	52	25.2	1	4	248	0.00	30.230 
10:20	41.5	41.5	41.5	52	25.2	2	4	248	0.00	30.229 
10:25	41.5	41.5	41.5	52	25.2	2	5	248	0.00	30.229 
10:30	41.5	41.5	41.5	53	25.7	1	4	248	0.00	30.228 
10:35	41.5	41.5	41.5	53	25.7	2	4	248	0.00	30.227 
10:40	41.5	41.5	41.5	53	25.7	1	6	248	0.00	30.227 
10:45	41.8	41.8	41.8	52	25.5	1	4	248	0.00	30.227 
10:50	42.1	42.1	42.1	52	25.8	2	6	248	0.00	30.221 
10:55	42.5	42.5	42.5	51	25.7	1	4	248	0.00	30.220 
11:00	42.9	42.9	42.9	51	26.0	1	4	248	0.00	30.217 
11:05	43.3	43.3	43.3	50	25.9	2	7	248	0.00	30.214 
11:10	43.8	43.8	43.8	49	25.9	3	6	248	0.00	30.210 
11:15	44.2	44.2	44.2	48	25.8	3	5	248	0.00	30.203 
11:20	44.5	44.5	44.5	48	26.0	2	5	248	0.00	30.196 
11:25	44.5	44.5	44.5	48	26.0	1	5	225	0.00	30.196 
11:30	44.5	44.5	44.5	48	26.0	2	5	248	0.00	30.196 
11:35	44.5	44.5	44.5	46	25.0	3	8	248	0.00	30.196 
11:40	44.6	44.6	44.6	47	25.6	2	6	248	0.00	30.192 
11:45	44.8	44.8	44.8	48	26.3	2	5	248	0.00	30.189 
11:50	44.9	44.9	44.9	47	25.9	2	5	248	0.00	30.185 
11:55	44.9	44.9	44.9	49	26.9	1	3	248	0.00	30.185 
12:00	44.8	44.8	44.8	49	26.8	1	6	248	0.00	30.182 
12:05	44.8	44.8	44.8	49	26.8	1	4	90	0.00	30.178 
12:10	45.1	45.1	45.1	50	27.6	1	4	248	0.00	30.172 
12:15	45.4	45.4	45.4	50	27.9	1	3	90	0.00	30.170 
12:20	45.8	45.8	45.8	49	27.7	1	5	135	0.00	30.162 
12:25	46.1	46.1	46.1	50	28.5	2	6	90	0.00	30.161 
12:30	46.4	46.4	46.4	49	28.3	1	4	90	0.00	30.156 
12:35	46.7	46.7	46.7	50	29.1	1	5	90	0.00	30.152 
12:40	47.3	47.3	47.3	48	28.6	1	4	90	0.00	30.150 
12:45	47.7	47.7	47.7	46	27.9	2	5	90	0.00	30.150 
12:50	48.3	48.3	48.3	47	29.0	2	6	248	0.00	30.149 
12:55	48.6	48.6	48.6	44	27.7	2	7	248	0.00	30.148 
13:00	48.9	48.9	48.9	44	28.0	2	5	270	0.00	30.146 
13:05	49.1	49.1	49.1	44	28.1	1	4	248	0.00	30.144 
13:10	49.4	49.4	49.4	45	29.0	1	3	270	0.00	30.138 
13:15	49.9	49.9	49.9	44	28.9	1	4	270	0.00	30.130 
13:20	50.5	50.5	50.5	40	27.1	2	6	270	0.00	30.129 
13:25	51.0	51.0	51.0	39	26.9	3	9	248	0.00	30.123 
13:30	51.6	51.6	51.6	39	27.5	3	7	248	0.00	30.122 
13:35	51.9	51.9	51.9	39	27.7	4	13	248	0.00	30.121 
13:40	52.2	52.2	52.2	37	26.7	3	9	248	0.00	30.113 
13:45	52.0	52.0	52.0	36	25.9	4	9	248	0.00	30.111 
13:50	52.2	52.2	52.2	36	26.1	3	8	248	0.00	30.108 
13:55	52.6	52.6	52.6	39	28.4	2	5	248	0.00	30.101 
14:00	52.9	52.9	52.9	36	26.7	3	10	248	0.00	30.095 
14:05	53.3	53.3	53.3	36	27.0	4	9	248	0.00	30.095 
14:10	53.6	53.6	53.6	38	28.6	3	7	248	0.00	30.092 
14:15	53.8	53.8	53.8	31	23.9	5	14	248	0.00	30.086 
14:20	53.8	53.8	53.8	32	24.6	4	7	248	0.00	30.090 
14:25	54.1	54.1	54.1	32	24.9	3	9	248	0.00	30.086 
14:30	54.4	54.4	54.4	32	25.2	3	7	248	0.00	30.087 
14:35	54.1	54.1	54.1	32	24.9	4	11	248	0.00	30.092 
14:40	54.1	54.1	54.1	34	26.4	2	6	248	0.00	30.090 
14:45	54.2	54.2	54.2	34	26.4	2	5	248	0.00	30.093 
14:50	54.2	54.2	54.2	32	25.0	3	12	248	0.00	30.091 
14:55	54.4	54.4	54.4	31	24.4	4	14	248	0.00	30.083 
15:00	54.7	54.7	54.7	32	25.4	4	8	248	0.00	30.079 
15:05	54.7	54.7	54.7	31	24.7	4	10	248	0.00	30.075 
15:10	54.8	54.8	54.8	34	27.0	3	6	248	0.00	30.076 
15:15	55.1	55.1	55.1	32	25.8	4	9	248	0.00	30.076 
15:20	55.6	55.6	55.6	34	27.7	3	7	248	0.00	30.075 
15:25	55.9	55.9	55.9	33	27.2	4	11	248	0.00	30.072 
15:30	57.0	57.0	57.0	38	31.6	3	7	248	0.00	30.063 
15:35	57.6	57.6	57.6	31	27.2	4	11	270	0.00	30.063 
15:40	58.0	58.0	58.0	32	28.3	4	9	248	0.00	30.062 
15:45	58.3	58.3	58.3	32	28.6	4	7	248	0.00	30.060 
15:50	58.4	58.4	58.4	32	28.7	4	10	248	0.00	30.058 
15:55	58.4	58.4	58.4	32	28.7	4	11	248	0.00	30.059 
16:00	58.7	58.7	58.7	35	31.1	3	7	248	0.00	30.055 
16:05	59.0	59.0	59.0	33	29.9	4	9	248	0.00	30.050 
16:10	59.2	59.2	59.2	33	30.1	4	9	248	0.00	30.045 
16:15	58.7	58.7	58.7	34	30.4	3	7	248	0.00	30.045 
16:20	58.4	58.4	58.4	35	30.9	4	12	248	0.00	30.042 
16:25	58.0	58.0	58.0	35	30.5	5	13	248	0.00	30.043 
16:30	58.0	58.0	58.0	36	31.2	4	9	248	0.00	30.040 
16:35	57.8	57.8	57.8	36	31.0	5	10	248	0.00	30.039 
16:40	57.8	57.8	57.8	37	31.7	4	11	248	0.00	30.038 
16:45	58.0	58.0	58.0	38	32.5	2	6	248	0.00	30.038 
16:50	58.4	58.4	58.4	38	32.9	3	9	248	0.00	30.038 
16:55	58.7	58.7	58.7	36	31.8	5	12	248	0.00	30.038 
17:00	58.7	58.7	58.7	37	32.5	4	12	270	0.00	30.037 
17:05	58.7	58.7	58.7	37	32.5	4	11	248	0.00	30.031 
17:10	58.6	58.6	58.6	38	33.1	4	11	248	0.00	30.032 
17:15	58.4	58.4	58.4	37	32.2	5	12	248	0.00	30.028 
17:20	58.4	58.4	58.4	37	32.2	3	9	248	0.00	30.026 
17:25	58.3	58.3	58.3	39	33.5	3	10	248	0.00	30.024 
17:30	58.3	58.3	58.3	38	32.8	4	9	248	0.00	30.024 
17:35	58.4	58.4	58.4	39	33.5	4	10	248	0.00	30.022 
17:40	58.6	58.6	58.6	38	33.1	3	8	248	0.00	30.021 
17:45	58.6	58.6	58.6	37	32.4	4	10	248	0.00	30.021 
17:50	58.6	58.6	58.6	38	33.1	4	10	248	0.00	30.023 
17:55	58.4	58.4	58.4	39	33.5	3	7	248	0.00	30.022 
18:00	58.1	58.1	58.1	39	33.3	3	7	248	0.00	30.022 
18:05	58.0	58.0	58.0	39	33.2	4	11	248	0.00	30.022 
18:10	57.8	57.8	57.8	40	33.6	3	9	248	0.00	30.023 
18:15	57.5	57.5	57.5	40	33.4	2	5	248	0.00	30.026 
18:20	57.2	57.2	57.2	41	33.7	2	5	248	0.00	30.029 
18:25	56.9	56.9	56.9	41	33.4	1	6	248	0.00	30.030 
18:30	56.6	56.6	56.6	42	33.8	2	7	248	0.00	30.031 
18:35	56.3	56.3	56.3	42	33.5	2	5	270	0.00	30.032 
18:40	56.0	56.0	56.0	42	33.2	1	4	248	0.00	30.031 
18:45	55.7	55.7	55.7	43	33.6	1	3	248	0.00	30.031 
18:50	55.3	55.3	55.3	44	33.8	0	3	270	0.00	30.033 
18:55	54.8	54.8	54.8	45	33.9	0	2	270	0.00	30.033 
19:00	54.5	54.5	54.5	45	33.6	1	4	248	0.00	30.033 
19:05	54.4	54.4	54.4	45	33.5	0	2	225	0.00	30.031 
19:10	54.1	54.1	54.1	46	33.8	0	2	225	0.00	30.032 
19:15	53.8	53.8	53.8	46	33.5	0	1	225	0.00	30.033 
19:20	53.2	53.2	53.2	47	33.5	0	0	---	0.00	30.036 
19:25	52.8	52.8	52.8	48	33.7	0	1	225	0.00	30.037 
19:30	52.3	52.3	52.3	49	33.7	0	0	---	0.00	30.039 
19:35	51.7	51.7	51.7	50	33.7	0	0	---	0.00	30.041 
19:40	51.1	51.1	51.1	51	33.6	0	0	---	0.00	30.043 
19:45	50.8	50.8	50.8	51	33.3	0	1	225	0.00	30.043 
19:50	50.5	50.5	50.5	52	33.5	0	1	225	0.00	30.048 
19:55	50.2	50.2	50.2	53	33.7	0	0	---	0.00	30.051 
20:00	49.8	49.8	49.8	53	33.4	0	0	---	0.00	30.049 
20:05	49.5	49.5	49.5	54	33.6	0	0	---	0.00	30.047 
20:10	49.2	49.2	49.2	55	33.7	0	1	225	0.00	30.050 
20:15	48.9	48.9	48.9	55	33.5	0	1	225	0.00	30.049 
20:20	48.9	48.9	48.9	55	33.5	0	0	---	0.00	30.049 
20:25	49.1	49.1	49.1	55	33.6	0	2	225	0.00	30.052 
20:30	49.4	49.4	49.4	54	33.5	0	1	225	0.00	30.048 
20:35	49.5	49.5	49.5	54	33.6	0	2	225	0.00	30.048 
20:40	49.4	49.4	49.4	54	33.5	0	1	225	0.00	30.044 
20:45	49.4	49.4	49.4	54	33.5	0	1	225	0.00	30.044 
20:50	49.1	49.1	49.1	55	33.6	0	1	225	0.00	30.041 
20:55	48.9	48.9	48.9	55	33.5	0	1	225	0.00	30.039 
21:00	48.8	48.8	48.8	55	33.4	0	1	225	0.00	30.039 
21:05	48.6	48.6	48.6	55	33.2	0	1	225	0.00	30.038 
21:10	48.6	48.6	48.6	55	33.2	0	1	225	0.00	30.039 
21:15	48.5	48.5	48.5	54	32.6	0	1	225	0.00	30.038 
21:20	48.6	48.6	48.6	54	32.7	0	2	225	0.00	30.038 
21:25	48.6	48.6	48.6	54	32.7	0	1	225	0.00	30.039 
21:30	48.8	48.8	48.8	53	32.4	0	3	225	0.00	30.039 
21:35	48.6	48.6	48.6	53	32.3	0	1	225	0.00	30.039 
21:40	48.5	48.5	48.5	53	32.2	0	1	225	0.00	30.037 
21:45	48.5	48.5	48.5	53	32.2	0	2	225	0.00	30.037 
21:50	48.3	48.3	48.3	53	32.0	0	1	225	0.00	30.040 
21:55	48.2	48.2	48.2	54	32.3	0	1	225	0.00	30.040 
22:00	48.0	48.0	48.0	54	32.2	0	1	225	0.00	30.039 
22:05	48.0	48.0	48.0	54	32.2	0	1	225	0.00	30.036 
22:10	47.9	47.9	47.9	54	32.1	0	1	225	0.00	30.036 
22:15	47.7	47.7	47.7	54	31.9	0	2	225	0.00	30.035 
22:20	47.6	47.6	47.6	54	31.8	0	2	225	0.00	30.033 
22:25	47.6	47.6	47.6	54	31.8	0	1	225	0.00	30.032 
22:30	47.4	47.4	47.4	54	31.6	0	1	225	0.00	30.031 
22:35	47.4	47.4	47.4	54	31.6	0	2	225	0.00	30.030 
22:40	47.1	47.1	47.1	54	31.3	0	1	225	0.00	30.032 
22:45	47.0	47.0	47.0	55	31.7	0	1	225	0.00	30.028 
22:50	46.8	46.8	46.8	55	31.5	0	1	225	0.00	30.024 
22:55	46.7	46.7	46.7	55	31.4	0	0	---	0.00	30.022 
23:00	46.5	46.5	46.5	55	31.2	0	1	225	0.00	30.020 
23:05	46.5	46.5	46.5	55	31.2	0	1	225	0.00	30.016 
23:10	46.4	46.4	46.4	55	31.1	0	1	225	0.00	30.014 
23:15	46.2	46.2	46.2	55	30.9	0	1	225	0.00	30.013 
23:20	46.4	46.4	46.4	55	31.1	0	1	225	0.00	30.012 
23:25	46.4	46.4	46.4	55	31.1	0	1	225	0.00	30.008 
23:30	46.4	46.4	46.4	55	31.1	0	1	225	0.00	30.007 
23:35	46.5	46.5	46.5	54	30.8	0	1	225	0.00	30.006 
23:40	46.7	46.7	46.7	54	30.9	0	2	225	0.00	30.006 
23:45	47.0	47.0	47.0	53	30.8	0	2	225	0.00	30.004 
23:50	47.0	47.0	47.0	53	30.8	0	2	225	0.00	30.005 
23:55	47.3	47.3	47.3	52	30.6	0	2	225	0.00	30.005 

CoCoRaHS
IN-AL-39
A2 Web Hosting
Creative Commons License
GoDaddy
Look for:

loaded 2017-10-17 09:16:26 • last modified 2010-11-18 10:43:29
Privacy PolicyDisclaimer
• wx.awcolley.com is powered by PmWiki v.2002016 •
• all content (unless otherwise noted) © 2017 A W Colley